sensor_id;sensor_type;location;lat;lon;timestamp;P1;durP1;ratioP1;P2;durP2;ratioP2
19854;SDS011;10088;47.946;2.532;2023-07-24T00:00:22;7.97;;;4.60;;
19854;SDS011;10088;47.946;2.532;2023-07-24T00:02:47;6.13;;;5.07;;
19854;SDS011;10088;47.946;2.532;2023-07-24T00:05:12;5.33;;;4.73;;
19854;SDS011;10088;47.946;2.532;2023-07-24T00:07:38;9.77;;;5.37;;
19854;SDS011;10088;47.946;2.532;2023-07-24T00:10:03;6.20;;;4.87;;
19854;SDS011;10088;47.946;2.532;2023-07-24T00:12:29;6.40;;;4.77;;
19854;SDS011;10088;47.946;2.532;2023-07-24T00:14:54;6.23;;;4.90;;
19854;SDS011;10088;47.946;2.532;2023-07-24T00:17:19;8.23;;;5.20;;
19854;SDS011;10088;47.946;2.532;2023-07-24T00:19:45;6.53;;;4.93;;
19854;SDS011;10088;47.946;2.532;2023-07-24T00:22:10;6.30;;;4.80;;
19854;SDS011;10088;47.946;2.532;2023-07-24T00:24:35;6.83;;;4.90;;
19854;SDS011;10088;47.946;2.532;2023-07-24T00:27:00;8.03;;;5.00;;
19854;SDS011;10088;47.946;2.532;2023-07-24T00:29:26;7.70;;;5.10;;
19854;SDS011;10088;47.946;2.532;2023-07-24T00:31:52;8.20;;;5.13;;
19854;SDS011;10088;47.946;2.532;2023-07-24T00:34:17;7.90;;;5.30;;
19854;SDS011;10088;47.946;2.532;2023-07-24T00:36:42;9.50;;;4.97;;
19854;SDS011;10088;47.946;2.532;2023-07-24T00:39:07;9.40;;;5.30;;
19854;SDS011;10088;47.946;2.532;2023-07-24T00:41:32;6.40;;;4.77;;
19854;SDS011;10088;47.946;2.532;2023-07-24T00:43:58;5.80;;;4.90;;
19854;SDS011;10088;47.946;2.532;2023-07-24T00:46:23;6.40;;;4.70;;
19854;SDS011;10088;47.946;2.532;2023-07-24T00:48:49;9.83;;;5.10;;
19854;SDS011;10088;47.946;2.532;2023-07-24T00:51:14;5.50;;;4.57;;
19854;SDS011;10088;47.946;2.532;2023-07-24T00:53:40;8.07;;;5.13;;
19854;SDS011;10088;47.946;2.532;2023-07-24T00:56:05;5.60;;;4.60;;
19854;SDS011;10088;47.946;2.532;2023-07-24T00:58:31;5.90;;;4.40;;
19854;SDS011;10088;47.946;2.532;2023-07-24T01:00:58;6.47;;;4.33;;
19854;SDS011;10088;47.946;2.532;2023-07-24T01:03:24;5.47;;;4.77;;
19854;SDS011;10088;47.946;2.532;2023-07-24T01:05:52;6.10;;;4.17;;
19854;SDS011;10088;47.946;2.532;2023-07-24T01:08:19;6.90;;;4.50;;
19854;SDS011;10088;47.946;2.532;2023-07-24T01:10:45;5.13;;;4.33;;
19854;SDS011;10088;47.946;2.532;2023-07-24T01:13:18;6.07;;;4.33;;
19854;SDS011;10088;47.946;2.532;2023-07-24T01:18:09;5.77;;;4.70;;
19854;SDS011;10088;47.946;2.532;2023-07-24T01:20:40;6.07;;;4.43;;
19854;SDS011;10088;47.946;2.532;2023-07-24T01:23:20;6.40;;;4.57;;
19854;SDS011;10088;47.946;2.532;2023-07-24T01:25:54;6.10;;;4.77;;
19854;SDS011;10088;47.946;2.532;2023-07-24T01:28:19;6.10;;;4.10;;
19854;SDS011;10088;47.946;2.532;2023-07-24T01:30:44;4.97;;;4.13;;
19854;SDS011;10088;47.946;2.532;2023-07-24T01:33:10;8.93;;;4.20;;
19854;SDS011;10088;47.946;2.532;2023-07-24T01:35:35;6.60;;;4.37;;
19854;SDS011;10088;47.946;2.532;2023-07-24T01:38:01;6.07;;;3.93;;
19854;SDS011;10088;47.946;2.532;2023-07-24T01:40:27;6.37;;;4.53;;
19854;SDS011;10088;47.946;2.532;2023-07-24T01:42:53;5.13;;;4.10;;
19854;SDS011;10088;47.946;2.532;2023-07-24T01:45:18;4.73;;;3.77;;
19854;SDS011;10088;47.946;2.532;2023-07-24T01:47:43;6.93;;;4.00;;
19854;SDS011;10088;47.946;2.532;2023-07-24T01:50:09;4.33;;;3.93;;
19854;SDS011;10088;47.946;2.532;2023-07-24T01:52:34;6.37;;;3.87;;
19854;SDS011;10088;47.946;2.532;2023-07-24T01:54:59;6.03;;;3.50;;
19854;SDS011;10088;47.946;2.532;2023-07-24T01:57:24;5.47;;;3.60;;
19854;SDS011;10088;47.946;2.532;2023-07-24T01:59:50;4.50;;;3.77;;
19854;SDS011;10088;47.946;2.532;2023-07-24T02:02:15;5.27;;;3.73;;
19854;SDS011;10088;47.946;2.532;2023-07-24T02:04:40;5.60;;;3.57;;
19854;SDS011;10088;47.946;2.532;2023-07-24T02:07:05;3.47;;;2.90;;
19854;SDS011;10088;47.946;2.532;2023-07-24T02:09:31;6.93;;;3.33;;
19854;SDS011;10088;47.946;2.532;2023-07-24T02:11:56;3.67;;;2.90;;
19854;SDS011;10088;47.946;2.532;2023-07-24T02:14:21;4.50;;;3.60;;
19854;SDS011;10088;47.946;2.532;2023-07-24T02:16:46;4.77;;;3.30;;
19854;SDS011;10088;47.946;2.532;2023-07-24T02:19:12;4.73;;;3.67;;
19854;SDS011;10088;47.946;2.532;2023-07-24T02:21:37;4.20;;;3.10;;
19854;SDS011;10088;47.946;2.532;2023-07-24T02:24:02;5.53;;;3.73;;
19854;SDS011;10088;47.946;2.532;2023-07-24T02:26:27;4.17;;;3.30;;
19854;SDS011;10088;47.946;2.532;2023-07-24T02:28:53;3.97;;;3.00;;
19854;SDS011;10088;47.946;2.532;2023-07-24T02:31:19;4.50;;;3.57;;
19854;SDS011;10088;47.946;2.532;2023-07-24T02:33:44;5.43;;;3.40;;
19854;SDS011;10088;47.946;2.532;2023-07-24T02:36:09;4.40;;;3.53;;
19854;SDS011;10088;47.946;2.532;2023-07-24T02:38:34;4.63;;;3.53;;
19854;SDS011;10088;47.946;2.532;2023-07-24T02:41:00;5.47;;;3.30;;
19854;SDS011;10088;47.946;2.532;2023-07-24T02:43:25;5.40;;;3.70;;
19854;SDS011;10088;47.946;2.532;2023-07-24T02:45:50;4.70;;;4.20;;
19854;SDS011;10088;47.946;2.532;2023-07-24T02:48:16;5.53;;;3.87;;
19854;SDS011;10088;47.946;2.532;2023-07-24T02:50:41;4.20;;;3.37;;
19854;SDS011;10088;47.946;2.532;2023-07-24T02:53:06;4.60;;;3.40;;
19854;SDS011;10088;47.946;2.532;2023-07-24T02:55:31;4.63;;;3.80;;
19854;SDS011;10088;47.946;2.532;2023-07-24T02:57:57;5.70;;;3.37;;
19854;SDS011;10088;47.946;2.532;2023-07-24T03:00:22;4.23;;;3.40;;
19854;SDS011;10088;47.946;2.532;2023-07-24T03:02:47;5.93;;;3.77;;
19854;SDS011;10088;47.946;2.532;2023-07-24T03:05:12;4.90;;;3.37;;
19854;SDS011;10088;47.946;2.532;2023-07-24T03:07:38;5.70;;;3.87;;
19854;SDS011;10088;47.946;2.532;2023-07-24T03:10:03;4.80;;;3.77;;
19854;SDS011;10088;47.946;2.532;2023-07-24T03:12:28;6.37;;;3.73;;
19854;SDS011;10088;47.946;2.532;2023-07-24T03:14:54;5.77;;;4.00;;
19854;SDS011;10088;47.946;2.532;2023-07-24T03:17:19;5.27;;;3.60;;
19854;SDS011;10088;47.946;2.532;2023-07-24T03:19:44;5.63;;;4.20;;
19854;SDS011;10088;47.946;2.532;2023-07-24T03:22:09;4.70;;;3.77;;
19854;SDS011;10088;47.946;2.532;2023-07-24T03:24:35;4.87;;;3.70;;
19854;SDS011;10088;47.946;2.532;2023-07-24T03:27:00;8.47;;;4.00;;
19854;SDS011;10088;47.946;2.532;2023-07-24T03:29:26;8.00;;;4.20;;
19854;SDS011;10088;47.946;2.532;2023-07-24T03:31:51;5.73;;;3.50;;
19854;SDS011;10088;47.946;2.532;2023-07-24T03:34:16;4.13;;;3.53;;
19854;SDS011;10088;47.946;2.532;2023-07-24T03:36:42;4.50;;;3.60;;
19854;SDS011;10088;47.946;2.532;2023-07-24T03:39:08;5.30;;;3.70;;
19854;SDS011;10088;47.946;2.532;2023-07-24T03:41:34;4.17;;;3.67;;
19854;SDS011;10088;47.946;2.532;2023-07-24T03:43:59;7.53;;;4.13;;
19854;SDS011;10088;47.946;2.532;2023-07-24T03:46:24;6.43;;;3.87;;
19854;SDS011;10088;47.946;2.532;2023-07-24T03:48:50;4.23;;;3.57;;
19854;SDS011;10088;47.946;2.532;2023-07-24T03:51:15;5.77;;;3.90;;
19854;SDS011;10088;47.946;2.532;2023-07-24T03:53:41;6.63;;;4.00;;
19854;SDS011;10088;47.946;2.532;2023-07-24T03:56:06;5.77;;;3.90;;
19854;SDS011;10088;47.946;2.532;2023-07-24T03:58:31;5.43;;;4.00;;
19854;SDS011;10088;47.946;2.532;2023-07-24T04:00:56;7.77;;;4.10;;
19854;SDS011;10088;47.946;2.532;2023-07-24T04:03:22;5.83;;;4.03;;
19854;SDS011;10088;47.946;2.532;2023-07-24T04:05:47;4.30;;;3.87;;
19854;SDS011;10088;47.946;2.532;2023-07-24T04:08:12;5.50;;;3.70;;
19854;SDS011;10088;47.946;2.532;2023-07-24T04:10:37;4.43;;;4.03;;
19854;SDS011;10088;47.946;2.532;2023-07-24T04:13:03;4.60;;;3.73;;
19854;SDS011;10088;47.946;2.532;2023-07-24T04:15:28;5.43;;;4.10;;
19854;SDS011;10088;47.946;2.532;2023-07-24T04:17:53;5.50;;;3.80;;
19854;SDS011;10088;47.946;2.532;2023-07-24T04:20:18;7.47;;;4.47;;
19854;SDS011;10088;47.946;2.532;2023-07-24T04:22:43;4.97;;;3.70;;
19854;SDS011;10088;47.946;2.532;2023-07-24T04:25:09;6.57;;;4.33;;
19854;SDS011;10088;47.946;2.532;2023-07-24T04:27:34;4.83;;;4.00;;
19854;SDS011;10088;47.946;2.532;2023-07-24T04:29:59;5.17;;;4.40;;
19854;SDS011;10088;47.946;2.532;2023-07-24T04:32:28;6.63;;;4.30;;
19854;SDS011;10088;47.946;2.532;2023-07-24T04:34:53;6.83;;;4.10;;
19854;SDS011;10088;47.946;2.532;2023-07-24T04:37:18;5.37;;;4.27;;
19854;SDS011;10088;47.946;2.532;2023-07-24T04:39:43;6.03;;;4.13;;
19854;SDS011;10088;47.946;2.532;2023-07-24T04:42:09;4.67;;;4.23;;
19854;SDS011;10088;47.946;2.532;2023-07-24T04:44:34;8.37;;;4.10;;
19854;SDS011;10088;47.946;2.532;2023-07-24T04:46:59;6.10;;;4.30;;
19854;SDS011;10088;47.946;2.532;2023-07-24T04:49:28;4.20;;;3.40;;
19854;SDS011;10088;47.946;2.532;2023-07-24T04:51:53;4.10;;;3.67;;
19854;SDS011;10088;47.946;2.532;2023-07-24T04:54:19;5.60;;;3.83;;
19854;SDS011;10088;47.946;2.532;2023-07-24T04:56:44;4.67;;;4.27;;
19854;SDS011;10088;47.946;2.532;2023-07-24T04:59:09;5.87;;;3.47;;
19854;SDS011;10088;47.946;2.532;2023-07-24T05:01:34;6.63;;;3.80;;
19854;SDS011;10088;47.946;2.532;2023-07-24T05:04:00;5.80;;;3.73;;
19854;SDS011;10088;47.946;2.532;2023-07-24T05:06:25;4.63;;;3.50;;
19854;SDS011;10088;47.946;2.532;2023-07-24T05:08:52;5.13;;;4.23;;
19854;SDS011;10088;47.946;2.532;2023-07-24T05:11:17;6.93;;;4.30;;
19854;SDS011;10088;47.946;2.532;2023-07-24T05:13:42;5.37;;;3.97;;
19854;SDS011;10088;47.946;2.532;2023-07-24T05:16:07;6.53;;;4.70;;
19854;SDS011;10088;47.946;2.532;2023-07-24T05:18:33;6.80;;;5.07;;
19854;SDS011;10088;47.946;2.532;2023-07-24T05:20:58;7.13;;;5.27;;
19854;SDS011;10088;47.946;2.532;2023-07-24T05:23:23;8.03;;;5.00;;
19854;SDS011;10088;47.946;2.532;2023-07-24T05:25:55;6.20;;;4.50;;
19854;SDS011;10088;47.946;2.532;2023-07-24T05:28:21;6.70;;;4.73;;
19854;SDS011;10088;47.946;2.532;2023-07-24T05:30:46;5.73;;;5.13;;
19854;SDS011;10088;47.946;2.532;2023-07-24T05:33:11;6.70;;;4.90;;
19854;SDS011;10088;47.946;2.532;2023-07-24T05:35:36;6.37;;;5.13;;
19854;SDS011;10088;47.946;2.532;2023-07-24T05:38:04;8.03;;;4.97;;
19854;SDS011;10088;47.946;2.532;2023-07-24T05:40:29;7.20;;;4.50;;
19854;SDS011;10088;47.946;2.532;2023-07-24T05:42:54;7.13;;;5.10;;
19854;SDS011;10088;47.946;2.532;2023-07-24T05:45:20;8.67;;;5.40;;
19854;SDS011;10088;47.946;2.532;2023-07-24T05:47:45;6.00;;;5.40;;
19854;SDS011;10088;47.946;2.532;2023-07-24T05:50:10;7.27;;;5.67;;
19854;SDS011;10088;47.946;2.532;2023-07-24T05:52:38;6.63;;;5.50;;
19854;SDS011;10088;47.946;2.532;2023-07-24T05:55:03;6.47;;;4.80;;
19854;SDS011;10088;47.946;2.532;2023-07-24T05:57:28;6.20;;;5.40;;
19854;SDS011;10088;47.946;2.532;2023-07-24T05:59:54;7.53;;;5.70;;
19854;SDS011;10088;47.946;2.532;2023-07-24T06:02:19;7.33;;;5.57;;
19854;SDS011;10088;47.946;2.532;2023-07-24T06:04:45;7.83;;;4.90;;
19854;SDS011;10088;47.946;2.532;2023-07-24T06:07:10;6.83;;;5.30;;
19854;SDS011;10088;47.946;2.532;2023-07-24T06:09:35;6.57;;;4.07;;
19854;SDS011;10088;47.946;2.532;2023-07-24T06:12:01;5.67;;;4.60;;
19854;SDS011;10088;47.946;2.532;2023-07-24T06:14:26;9.20;;;4.57;;
19854;SDS011;10088;47.946;2.532;2023-07-24T06:16:51;8.17;;;4.53;;
19854;SDS011;10088;47.946;2.532;2023-07-24T06:19:16;5.60;;;4.03;;
19854;SDS011;10088;47.946;2.532;2023-07-24T06:21:42;4.93;;;3.07;;
19854;SDS011;10088;47.946;2.532;2023-07-24T06:24:07;4.70;;;3.27;;
19854;SDS011;10088;47.946;2.532;2023-07-24T06:26:36;4.20;;;3.10;;
19854;SDS011;10088;47.946;2.532;2023-07-24T06:29:02;4.27;;;3.00;;
19854;SDS011;10088;47.946;2.532;2023-07-24T06:31:27;3.43;;;2.70;;
19854;SDS011;10088;47.946;2.532;2023-07-24T06:33:52;4.27;;;2.90;;
19854;SDS011;10088;47.946;2.532;2023-07-24T06:36:17;4.67;;;2.60;;
19854;SDS011;10088;47.946;2.532;2023-07-24T06:38:43;3.47;;;2.77;;
19854;SDS011;10088;47.946;2.532;2023-07-24T06:41:09;4.10;;;2.60;;
19854;SDS011;10088;47.946;2.532;2023-07-24T06:43:34;3.10;;;2.20;;
19854;SDS011;10088;47.946;2.532;2023-07-24T06:45:59;3.03;;;2.10;;
19854;SDS011;10088;47.946;2.532;2023-07-24T06:48:24;3.57;;;2.47;;
19854;SDS011;10088;47.946;2.532;2023-07-24T06:50:50;3.80;;;2.00;;
19854;SDS011;10088;47.946;2.532;2023-07-24T06:53:15;1.93;;;1.73;;
19854;SDS011;10088;47.946;2.532;2023-07-24T06:55:41;2.30;;;1.77;;
19854;SDS011;10088;47.946;2.532;2023-07-24T06:58:06;3.10;;;1.50;;
19854;SDS011;10088;47.946;2.532;2023-07-24T07:00:31;1.70;;;1.57;;
19854;SDS011;10088;47.946;2.532;2023-07-24T07:02:56;3.77;;;2.07;;
19854;SDS011;10088;47.946;2.532;2023-07-24T07:05:22;3.87;;;1.77;;
19854;SDS011;10088;47.946;2.532;2023-07-24T07:07:47;3.63;;;1.80;;
19854;SDS011;10088;47.946;2.532;2023-07-24T07:10:12;2.57;;;1.37;;
19854;SDS011;10088;47.946;2.532;2023-07-24T07:12:37;4.53;;;1.70;;
19854;SDS011;10088;47.946;2.532;2023-07-24T07:15:03;1.60;;;1.50;;
19854;SDS011;10088;47.946;2.532;2023-07-24T07:17:28;1.63;;;1.40;;
19854;SDS011;10088;47.946;2.532;2023-07-24T07:19:53;1.80;;;1.60;;
19854;SDS011;10088;47.946;2.532;2023-07-24T07:22:21;2.90;;;1.40;;
19854;SDS011;10088;47.946;2.532;2023-07-24T07:24:46;2.10;;;1.50;;
19854;SDS011;10088;47.946;2.532;2023-07-24T07:27:12;1.50;;;1.40;;
19854;SDS011;10088;47.946;2.532;2023-07-24T07:29:37;2.90;;;1.50;;
19854;SDS011;10088;47.946;2.532;2023-07-24T07:32:02;2.00;;;1.07;;
19854;SDS011;10088;47.946;2.532;2023-07-24T07:34:27;1.50;;;1.40;;
19854;SDS011;10088;47.946;2.532;2023-07-24T07:36:53;1.77;;;1.53;;
19854;SDS011;10088;47.946;2.532;2023-07-24T07:39:18;2.40;;;1.67;;
19854;SDS011;10088;47.946;2.532;2023-07-24T07:41:43;3.97;;;1.70;;
19854;SDS011;10088;47.946;2.532;2023-07-24T07:44:08;1.63;;;1.20;;
19854;SDS011;10088;47.946;2.532;2023-07-24T07:46:34;2.23;;;1.40;;
19854;SDS011;10088;47.946;2.532;2023-07-24T07:48:59;2.20;;;1.30;;
19854;SDS011;10088;47.946;2.532;2023-07-24T07:51:24;2.80;;;1.80;;
19854;SDS011;10088;47.946;2.532;2023-07-24T07:53:51;2.53;;;1.40;;
19854;SDS011;10088;47.946;2.532;2023-07-24T07:56:16;3.20;;;1.50;;
19854;SDS011;10088;47.946;2.532;2023-07-24T07:58:41;2.30;;;1.50;;
19854;SDS011;10088;47.946;2.532;2023-07-24T08:01:07;2.47;;;1.40;;
19854;SDS011;10088;47.946;2.532;2023-07-24T08:03:32;3.40;;;1.50;;
19854;SDS011;10088;47.946;2.532;2023-07-24T08:05:58;2.23;;;1.70;;
19854;SDS011;10088;47.946;2.532;2023-07-24T08:08:23;2.50;;;1.80;;
19854;SDS011;10088;47.946;2.532;2023-07-24T08:10:48;2.33;;;1.40;;
19854;SDS011;10088;47.946;2.532;2023-07-24T08:13:14;3.27;;;1.33;;
19854;SDS011;10088;47.946;2.532;2023-07-24T08:15:39;2.73;;;1.37;;
19854;SDS011;10088;47.946;2.532;2023-07-24T08:18:04;1.97;;;1.40;;
19854;SDS011;10088;47.946;2.532;2023-07-24T08:20:30;1.70;;;1.57;;
19854;SDS011;10088;47.946;2.532;2023-07-24T08:22:55;2.73;;;1.70;;
19854;SDS011;10088;47.946;2.532;2023-07-24T08:25:21;1.83;;;1.30;;
19854;SDS011;10088;47.946;2.532;2023-07-24T08:27:46;1.80;;;1.33;;
19854;SDS011;10088;47.946;2.532;2023-07-24T08:30:11;2.07;;;1.20;;
19854;SDS011;10088;47.946;2.532;2023-07-24T08:32:36;2.80;;;1.27;;
19854;SDS011;10088;47.946;2.532;2023-07-24T08:35:02;2.00;;;1.60;;
19854;SDS011;10088;47.946;2.532;2023-07-24T08:37:27;2.27;;;1.20;;
19854;SDS011;10088;47.946;2.532;2023-07-24T08:39:52;2.23;;;1.30;;
19854;SDS011;10088;47.946;2.532;2023-07-24T08:42:17;1.63;;;1.20;;
19854;SDS011;10088;47.946;2.532;2023-07-24T08:44:45;2.30;;;1.40;;
19854;SDS011;10088;47.946;2.532;2023-07-24T08:47:10;3.33;;;1.10;;
19854;SDS011;10088;47.946;2.532;2023-07-24T08:49:39;2.63;;;1.40;;
19854;SDS011;10088;47.946;2.532;2023-07-24T08:52:07;2.57;;;1.10;;
19854;SDS011;10088;47.946;2.532;2023-07-24T08:54:32;3.33;;;1.20;;
19854;SDS011;10088;47.946;2.532;2023-07-24T08:57:00;2.27;;;1.33;;
19854;SDS011;10088;47.946;2.532;2023-07-24T08:59:26;3.60;;;1.33;;
19854;SDS011;10088;47.946;2.532;2023-07-24T09:01:52;2.90;;;1.33;;
19854;SDS011;10088;47.946;2.532;2023-07-24T09:04:17;2.17;;;1.30;;
19854;SDS011;10088;47.946;2.532;2023-07-24T09:06:43;3.27;;;1.20;;
19854;SDS011;10088;47.946;2.532;2023-07-24T09:09:31;4.63;;;1.47;;
19854;SDS011;10088;47.946;2.532;2023-07-24T09:12:02;1.97;;;1.30;;
19854;SDS011;10088;47.946;2.532;2023-07-24T09:14:44;3.97;;;1.40;;
19854;SDS011;10088;47.946;2.532;2023-07-24T09:17:27;1.83;;;1.20;;
19854;SDS011;10088;47.946;2.532;2023-07-24T09:20:07;2.53;;;1.33;;
19854;SDS011;10088;47.946;2.532;2023-07-24T09:22:54;2.57;;;1.30;;
19854;SDS011;10088;47.946;2.532;2023-07-24T09:25:41;2.57;;;1.40;;
19854;SDS011;10088;47.946;2.532;2023-07-24T09:28:16;1.97;;;1.30;;
19854;SDS011;10088;47.946;2.532;2023-07-24T09:31:00;2.73;;;1.43;;
19854;SDS011;10088;47.946;2.532;2023-07-24T09:39:08;1.37;;;0.97;;
19854;SDS011;10088;47.946;2.532;2023-07-24T09:41:53;2.17;;;1.10;;
19854;SDS011;10088;47.946;2.532;2023-07-24T09:44:31;2.03;;;1.40;;
19854;SDS011;10088;47.946;2.532;2023-07-24T09:47:21;2.50;;;1.10;;
19854;SDS011;10088;47.946;2.532;2023-07-24T09:53:02;2.27;;;1.33;;
19854;SDS011;10088;47.946;2.532;2023-07-24T09:55:35;3.90;;;1.30;;
19854;SDS011;10088;47.946;2.532;2023-07-24T10:02:01;2.50;;;1.30;;
19854;SDS011;10088;47.946;2.532;2023-07-24T10:04:32;1.33;;;1.00;;
19854;SDS011;10088;47.946;2.532;2023-07-24T10:07:13;1.93;;;1.20;;
19854;SDS011;10088;47.946;2.532;2023-07-24T10:13:20;2.00;;;1.30;;
19854;SDS011;10088;47.946;2.532;2023-07-24T10:22:21;3.03;;;1.30;;
19854;SDS011;10088;47.946;2.532;2023-07-24T10:25:02;2.90;;;1.33;;
19854;SDS011;10088;47.946;2.532;2023-07-24T10:27:42;2.73;;;1.20;;
19854;SDS011;10088;47.946;2.532;2023-07-24T10:30:28;1.60;;;1.10;;
19854;SDS011;10088;47.946;2.532;2023-07-24T10:33:19;3.90;;;1.33;;
19854;SDS011;10088;47.946;2.532;2023-07-24T10:36:08;4.43;;;1.40;;
19854;SDS011;10088;47.946;2.532;2023-07-24T10:39:13;2.03;;;1.23;;
19854;SDS011;10088;47.946;2.532;2023-07-24T10:42:06;2.73;;;1.13;;
19854;SDS011;10088;47.946;2.532;2023-07-24T10:45:04;2.17;;;1.40;;
19854;SDS011;10088;47.946;2.532;2023-07-24T10:50:41;7.27;;;1.13;;
19854;SDS011;10088;47.946;2.532;2023-07-24T10:53:19;1.77;;;1.10;;
19854;SDS011;10088;47.946;2.532;2023-07-24T10:56:00;3.90;;;1.30;;
19854;SDS011;10088;47.946;2.532;2023-07-24T10:58:35;3.53;;;1.50;;
19854;SDS011;10088;47.946;2.532;2023-07-24T11:01:08;4.93;;;1.53;;
19854;SDS011;10088;47.946;2.532;2023-07-24T11:03:57;2.53;;;1.20;;
19854;SDS011;10088;47.946;2.532;2023-07-24T11:06:25;3.13;;;1.30;;
19854;SDS011;10088;47.946;2.532;2023-07-24T11:09:04;2.27;;;1.30;;
19854;SDS011;10088;47.946;2.532;2023-07-24T11:11:57;3.33;;;1.17;;
19854;SDS011;10088;47.946;2.532;2023-07-24T11:14:29;2.83;;;1.17;;
19854;SDS011;10088;47.946;2.532;2023-07-24T11:17:09;1.90;;;1.20;;
19854;SDS011;10088;47.946;2.532;2023-07-24T11:19:34;3.00;;;1.27;;
19854;SDS011;10088;47.946;2.532;2023-07-24T11:21:59;3.47;;;1.10;;
19854;SDS011;10088;47.946;2.532;2023-07-24T11:24:28;3.33;;;1.40;;
19854;SDS011;10088;47.946;2.532;2023-07-24T11:26:53;2.87;;;1.20;;
19854;SDS011;10088;47.946;2.532;2023-07-24T11:29:19;2.90;;;1.27;;
19854;SDS011;10088;47.946;2.532;2023-07-24T11:31:44;2.97;;;1.43;;
19854;SDS011;10088;47.946;2.532;2023-07-24T11:34:09;2.43;;;1.40;;
19854;SDS011;10088;47.946;2.532;2023-07-24T11:36:35;6.57;;;1.57;;
19854;SDS011;10088;47.946;2.532;2023-07-24T11:39:00;1.63;;;1.07;;
19854;SDS011;10088;47.946;2.532;2023-07-24T11:41:25;1.97;;;1.30;;
19854;SDS011;10088;47.946;2.532;2023-07-24T11:43:51;1.30;;;0.97;;
19854;SDS011;10088;47.946;2.532;2023-07-24T11:46:26;3.83;;;1.40;;
19854;SDS011;10088;47.946;2.532;2023-07-24T11:48:51;2.20;;;0.90;;
19854;SDS011;10088;47.946;2.532;2023-07-24T11:51:21;2.60;;;1.17;;
19854;SDS011;10088;47.946;2.532;2023-07-24T11:53:49;2.90;;;0.97;;
19854;SDS011;10088;47.946;2.532;2023-07-24T11:56:15;2.23;;;1.10;;
19854;SDS011;10088;47.946;2.532;2023-07-24T11:58:41;1.67;;;0.97;;
19854;SDS011;10088;47.946;2.532;2023-07-24T12:01:06;2.33;;;0.93;;
19854;SDS011;10088;47.946;2.532;2023-07-24T12:03:31;1.77;;;1.10;;
19854;SDS011;10088;47.946;2.532;2023-07-24T12:05:57;2.30;;;0.97;;
19854;SDS011;10088;47.946;2.532;2023-07-24T12:08:34;1.07;;;0.87;;
19854;SDS011;10088;47.946;2.532;2023-07-24T12:11:01;1.80;;;0.80;;
19854;SDS011;10088;47.946;2.532;2023-07-24T12:13:26;1.57;;;0.90;;
19854;SDS011;10088;47.946;2.532;2023-07-24T12:15:52;1.47;;;0.80;;
19854;SDS011;10088;47.946;2.532;2023-07-24T12:18:17;2.20;;;1.10;;
19854;SDS011;10088;47.946;2.532;2023-07-24T12:20:43;2.20;;;0.77;;
19854;SDS011;10088;47.946;2.532;2023-07-24T12:23:08;0.90;;;0.80;;
19854;SDS011;10088;47.946;2.532;2023-07-24T12:25:33;1.83;;;1.00;;
19854;SDS011;10088;47.946;2.532;2023-07-24T12:27:58;2.07;;;1.00;;
19854;SDS011;10088;47.946;2.532;2023-07-24T12:30:24;1.63;;;0.80;;
19854;SDS011;10088;47.946;2.532;2023-07-24T12:32:49;1.90;;;1.00;;
19854;SDS011;10088;47.946;2.532;2023-07-24T12:35:15;1.37;;;0.83;;
19854;SDS011;10088;47.946;2.532;2023-07-24T12:37:40;1.60;;;1.07;;
19854;SDS011;10088;47.946;2.532;2023-07-24T12:40:07;1.60;;;1.00;;
19854;SDS011;10088;47.946;2.532;2023-07-24T12:42:32;3.20;;;1.00;;
19854;SDS011;10088;47.946;2.532;2023-07-24T12:44:57;3.43;;;1.33;;
19854;SDS011;10088;47.946;2.532;2023-07-24T12:47:23;5.43;;;1.00;;
19854;SDS011;10088;47.946;2.532;2023-07-24T12:49:48;3.20;;;1.20;;
19854;SDS011;10088;47.946;2.532;2023-07-24T12:52:13;3.17;;;0.80;;
19854;SDS011;10088;47.946;2.532;2023-07-24T12:54:39;1.70;;;0.80;;
19854;SDS011;10088;47.946;2.532;2023-07-24T12:57:04;4.50;;;0.90;;
19854;SDS011;10088;47.946;2.532;2023-07-24T12:59:29;1.27;;;0.80;;
19854;SDS011;10088;47.946;2.532;2023-07-24T13:01:55;3.20;;;0.83;;
19854;SDS011;10088;47.946;2.532;2023-07-24T13:04:20;1.30;;;0.80;;
19854;SDS011;10088;47.946;2.532;2023-07-24T13:06:46;1.73;;;0.90;;
19854;SDS011;10088;47.946;2.532;2023-07-24T13:09:11;2.00;;;1.00;;
19854;SDS011;10088;47.946;2.532;2023-07-24T13:11:36;2.67;;;1.00;;
19854;SDS011;10088;47.946;2.532;2023-07-24T13:14:02;1.70;;;1.13;;
19854;SDS011;10088;47.946;2.532;2023-07-24T13:16:27;1.43;;;1.10;;
19854;SDS011;10088;47.946;2.532;2023-07-24T13:18:52;2.20;;;1.00;;
19854;SDS011;10088;47.946;2.532;2023-07-24T13:21:17;3.47;;;1.13;;
19854;SDS011;10088;47.946;2.532;2023-07-24T13:23:43;2.53;;;1.23;;
19854;SDS011;10088;47.946;2.532;2023-07-24T13:26:08;1.80;;;1.23;;
19854;SDS011;10088;47.946;2.532;2023-07-24T13:28:35;1.13;;;0.90;;
19854;SDS011;10088;47.946;2.532;2023-07-24T13:31:10;1.70;;;1.10;;
19854;SDS011;10088;47.946;2.532;2023-07-24T13:33:35;2.60;;;1.20;;
19854;SDS011;10088;47.946;2.532;2023-07-24T13:36:01;1.60;;;0.83;;
19854;SDS011;10088;47.946;2.532;2023-07-24T13:38:26;1.27;;;1.10;;
19854;SDS011;10088;47.946;2.532;2023-07-24T13:40:51;2.50;;;1.20;;
19854;SDS011;10088;47.946;2.532;2023-07-24T13:43:16;1.63;;;1.07;;
19854;SDS011;10088;47.946;2.532;2023-07-24T13:45:43;1.63;;;1.00;;
19854;SDS011;10088;47.946;2.532;2023-07-24T13:48:09;1.87;;;1.10;;
19854;SDS011;10088;47.946;2.532;2023-07-24T13:50:34;1.90;;;1.00;;
19854;SDS011;10088;47.946;2.532;2023-07-24T13:52:59;3.67;;;1.40;;
19854;SDS011;10088;47.946;2.532;2023-07-24T13:55:24;4.07;;;1.20;;
19854;SDS011;10088;47.946;2.532;2023-07-24T13:57:50;2.03;;;1.20;;
19854;SDS011;10088;47.946;2.532;2023-07-24T14:00:15;3.70;;;1.07;;
19854;SDS011;10088;47.946;2.532;2023-07-24T14:02:40;2.10;;;1.03;;
19854;SDS011;10088;47.946;2.532;2023-07-24T14:05:06;2.23;;;1.10;;
19854;SDS011;10088;47.946;2.532;2023-07-24T14:07:31;2.67;;;1.10;;
19854;SDS011;10088;47.946;2.532;2023-07-24T14:09:56;3.27;;;1.10;;
19854;SDS011;10088;47.946;2.532;2023-07-24T14:12:22;2.47;;;1.10;;
19854;SDS011;10088;47.946;2.532;2023-07-24T14:14:47;1.67;;;1.13;;
19854;SDS011;10088;47.946;2.532;2023-07-24T14:17:12;2.97;;;1.30;;
19854;SDS011;10088;47.946;2.532;2023-07-24T14:19:39;2.53;;;1.20;;
19854;SDS011;10088;47.946;2.532;2023-07-24T14:22:04;3.07;;;1.03;;
19854;SDS011;10088;47.946;2.532;2023-07-24T14:24:30;2.73;;;1.00;;
19854;SDS011;10088;47.946;2.532;2023-07-24T14:26:55;3.83;;;0.93;;
19854;SDS011;10088;47.946;2.532;2023-07-24T14:29:20;3.70;;;1.13;;
19854;SDS011;10088;47.946;2.532;2023-07-24T14:31:46;1.93;;;1.10;;
19854;SDS011;10088;47.946;2.532;2023-07-24T14:34:11;2.60;;;1.10;;
19854;SDS011;10088;47.946;2.532;2023-07-24T14:36:37;3.57;;;1.27;;
19854;SDS011;10088;47.946;2.532;2023-07-24T14:39:03;2.90;;;1.30;;
19854;SDS011;10088;47.946;2.532;2023-07-24T14:41:29;2.27;;;1.30;;
19854;SDS011;10088;47.946;2.532;2023-07-24T14:43:54;1.93;;;1.10;;
19854;SDS011;10088;47.946;2.532;2023-07-24T14:46:19;1.97;;;1.10;;
19854;SDS011;10088;47.946;2.532;2023-07-24T14:48:45;3.33;;;1.23;;
19854;SDS011;10088;47.946;2.532;2023-07-24T14:51:10;1.43;;;0.80;;
19854;SDS011;10088;47.946;2.532;2023-07-24T14:53:35;1.97;;;0.87;;
19854;SDS011;10088;47.946;2.532;2023-07-24T14:56:02;2.30;;;1.17;;
19854;SDS011;10088;47.946;2.532;2023-07-24T14:58:27;1.43;;;0.90;;
19854;SDS011;10088;47.946;2.532;2023-07-24T15:00:52;3.67;;;0.80;;
19854;SDS011;10088;47.946;2.532;2023-07-24T15:03:18;1.93;;;0.90;;
19854;SDS011;10088;47.946;2.532;2023-07-24T15:05:43;2.27;;;1.00;;
19854;SDS011;10088;47.946;2.532;2023-07-24T15:08:08;4.17;;;1.10;;
19854;SDS011;10088;47.946;2.532;2023-07-24T15:10:33;2.37;;;1.17;;
19854;SDS011;10088;47.946;2.532;2023-07-24T15:12:59;2.30;;;0.80;;
19854;SDS011;10088;47.946;2.532;2023-07-24T15:15:26;2.93;;;0.87;;